Boulevard, CA (91905)

7:06 PM PDT on September 01, 2015 (GMT -0700)
Tierra Del Sol | | Change Station
CLOSE
Current Station
Personal Weather Station
Location: Boulevard, CA
Elevation: 3710 ft
Nearby Weather Stations

Elev 3710 ft 32.61 °N, 116.33 °W | Updated 6 minutes ago

Partly Cloudy
Partly Cloudy
70.8 °F
Feels Like 77 °F
N
1.0
Wind Variable Wind from West
Gusts 3.0 mph

Today
High -- | Low -- °F
--% Chance of Precip.
Yesterday
High -- | Low -- °F
Precip. -- in
6:19 AM 7:10 PM
Waning Gibbous, 84% visible
Pressure 29.86 in
Visibility -9999.0 miles
Clouds
Heat Index 77 °F
Dew Point 51 °F
Humidity 49%
Rainfall 0.00 in
Snow Depth Not available.
UV Not available.
Pollen 6.70 out of 12
Air Quality Not available.
Flu Activity Not available.
METAR KCZZ 020152Z AUTO 21007KT 21/13 A2993 RMK AO1 SLP112 T02060133
Pressure 29.86 in
Visibility -9999.0 miles
Clouds
Heat Index 77 °F
Dew Point 51 °F
Humidity 49%
Rainfall 0.00 in
Snow Depth Not available.
UV Not available.
Pollen 6.70 out of 12
Air Quality Not available.
Flu Activity Not available.
METAR KCZZ 020152Z AUTO 21007KT 21/13 A2993 RMK AO1 SLP112 T02060133

10-Day Weather Forecast

×

Almanac

Astronomy

Sep. 01, 2015 Rise Set
Actual Time
Civil Twilight
Nautical Twilight
Astronomical Twilight
Moon
Length of Visible Light
Length of Day
Tomorrow will be .
, % of the Moon is Illuminated

Today's Extremes

State Highs State Lows

Community

WunderPhotos

Upload Photos

1,851,679 photos uploaded!

WunderBlogs® & News

Nearby

Air Quality

  Air Quality AQ Index Pollutant
Not available.

Snow Depth

Station Depth Elevation

Earthquake Activity

City Distance Mag. Time & Date
Minimum magnitude displayed is 2.5.

Coastal Water Temperatures

Place Temperature

Stations

Nearby Weather Stations

Station Location Temp. Windchill Dew Point Humidity Wind Precip. Elev Updated Type